sensor_id;sensor_type;location;lat;lon;timestamp;P1;durP1;ratioP1;P2;durP2;ratioP2
2476;SDS011;1249;51.270;6.756;2023-08-08T00:00:36;2.60;;;2.30;;
2476;SDS011;1249;51.270;6.756;2023-08-08T00:03:01;3.73;;;2.13;;
2476;SDS011;1249;51.270;6.756;2023-08-08T00:05:27;1.77;;;1.67;;
2476;SDS011;1249;51.270;6.756;2023-08-08T00:07:52;2.90;;;1.80;;
2476;SDS011;1249;51.270;6.756;2023-08-08T00:10:18;2.40;;;2.20;;
2476;SDS011;1249;51.270;6.756;2023-08-08T00:12:43;4.23;;;2.07;;
2476;SDS011;1249;51.270;6.756;2023-08-08T00:15:09;2.13;;;1.70;;
2476;SDS011;1249;51.270;6.756;2023-08-08T00:17:35;2.53;;;1.93;;
2476;SDS011;1249;51.270;6.756;2023-08-08T00:20:00;2.50;;;2.00;;
2476;SDS011;1249;51.270;6.756;2023-08-08T00:22:27;2.10;;;1.90;;
2476;SDS011;1249;51.270;6.756;2023-08-08T00:24:54;4.03;;;1.93;;
2476;SDS011;1249;51.270;6.756;2023-08-08T00:27:19;1.87;;;1.77;;
2476;SDS011;1249;51.270;6.756;2023-08-08T00:29:45;3.20;;;2.60;;
2476;SDS011;1249;51.270;6.756;2023-08-08T00:32:11;4.03;;;2.00;;
2476;SDS011;1249;51.270;6.756;2023-08-08T00:34:36;2.80;;;2.23;;
2476;SDS011;1249;51.270;6.756;2023-08-08T00:37:02;2.63;;;2.43;;
2476;SDS011;1249;51.270;6.756;2023-08-08T00:39:27;2.23;;;1.97;;
2476;SDS011;1249;51.270;6.756;2023-08-08T00:41:53;1.80;;;1.70;;
2476;SDS011;1249;51.270;6.756;2023-08-08T00:44:18;5.60;;;2.73;;
2476;SDS011;1249;51.270;6.756;2023-08-08T00:46:44;3.30;;;2.77;;
2476;SDS011;1249;51.270;6.756;2023-08-08T00:49:09;2.63;;;2.10;;
2476;SDS011;1249;51.270;6.756;2023-08-08T00:51:36;3.60;;;1.83;;
2476;SDS011;1249;51.270;6.756;2023-08-08T00:54:01;2.23;;;2.00;;
2476;SDS011;1249;51.270;6.756;2023-08-08T00:56:28;2.80;;;2.50;;
2476;SDS011;1249;51.270;6.756;2023-08-08T00:58:54;4.13;;;2.30;;
2476;SDS011;1249;51.270;6.756;2023-08-08T01:01:19;4.00;;;2.43;;
2476;SDS011;1249;51.270;6.756;2023-08-08T01:03:45;3.17;;;2.63;;
2476;SDS011;1249;51.270;6.756;2023-08-08T01:09:32;2.50;;;2.30;;
2476;SDS011;1249;51.270;6.756;2023-08-08T01:11:57;2.73;;;2.50;;
2476;SDS011;1249;51.270;6.756;2023-08-08T01:14:24;2.47;;;2.23;;
2476;SDS011;1249;51.270;6.756;2023-08-08T01:16:52;3.90;;;2.20;;
2476;SDS011;1249;51.270;6.756;2023-08-08T01:19:23;3.60;;;2.80;;
2476;SDS011;1249;51.270;6.756;2023-08-08T01:21:53;2.30;;;2.03;;
2476;SDS011;1249;51.270;6.756;2023-08-08T01:24:23;3.33;;;3.03;;
2476;SDS011;1249;51.270;6.756;2023-08-08T01:26:54;4.37;;;2.70;;
2476;SDS011;1249;51.270;6.756;2023-08-08T01:29:21;4.10;;;2.60;;
2476;SDS011;1249;51.270;6.756;2023-08-08T01:31:47;3.13;;;2.50;;
2476;SDS011;1249;51.270;6.756;2023-08-08T01:34:12;7.60;;;3.03;;
2476;SDS011;1249;51.270;6.756;2023-08-08T01:36:42;3.70;;;2.77;;
2476;SDS011;1249;51.270;6.756;2023-08-08T01:39:16;3.57;;;3.27;;
2476;SDS011;1249;51.270;6.756;2023-08-08T01:41:44;3.33;;;2.30;;
2476;SDS011;1249;51.270;6.756;2023-08-08T01:44:12;2.70;;;2.43;;
2476;SDS011;1249;51.270;6.756;2023-08-08T01:46:38;5.00;;;2.67;;
2476;SDS011;1249;51.270;6.756;2023-08-08T01:49:05;5.23;;;2.60;;
2476;SDS011;1249;51.270;6.756;2023-08-08T01:51:30;3.30;;;2.63;;
2476;SDS011;1249;51.270;6.756;2023-08-08T01:53:56;2.60;;;2.40;;
2476;SDS011;1249;51.270;6.756;2023-08-08T01:56:21;5.50;;;2.47;;
2476;SDS011;1249;51.270;6.756;2023-08-08T01:58:47;5.63;;;3.07;;
2476;SDS011;1249;51.270;6.756;2023-08-08T02:01:13;3.10;;;2.80;;
2476;SDS011;1249;51.270;6.756;2023-08-08T02:03:38;3.57;;;2.30;;
2476;SDS011;1249;51.270;6.756;2023-08-08T02:06:04;4.43;;;2.50;;
2476;SDS011;1249;51.270;6.756;2023-08-08T02:08:29;2.70;;;2.33;;
2476;SDS011;1249;51.270;6.756;2023-08-08T02:10:55;6.73;;;2.33;;
2476;SDS011;1249;51.270;6.756;2023-08-08T02:13:20;2.97;;;2.67;;
2476;SDS011;1249;51.270;6.756;2023-08-08T02:15:46;2.30;;;2.10;;
2476;SDS011;1249;51.270;6.756;2023-08-08T02:18:11;3.37;;;3.07;;
2476;SDS011;1249;51.270;6.756;2023-08-08T02:20:37;3.40;;;2.40;;
2476;SDS011;1249;51.270;6.756;2023-08-08T02:23:03;2.60;;;2.40;;
2476;SDS011;1249;51.270;6.756;2023-08-08T02:25:28;2.80;;;2.60;;
2476;SDS011;1249;51.270;6.756;2023-08-08T02:27:55;2.70;;;2.30;;
2476;SDS011;1249;51.270;6.756;2023-08-08T02:30:21;5.07;;;2.63;;
2476;SDS011;1249;51.270;6.756;2023-08-08T02:32:47;6.60;;;1.90;;
2476;SDS011;1249;51.270;6.756;2023-08-08T02:35:12;2.63;;;2.40;;
2476;SDS011;1249;51.270;6.756;2023-08-08T02:37:38;3.50;;;2.20;;
2476;SDS011;1249;51.270;6.756;2023-08-08T02:40:04;2.83;;;2.60;;
2476;SDS011;1249;51.270;6.756;2023-08-08T02:42:30;2.90;;;2.13;;
2476;SDS011;1249;51.270;6.756;2023-08-08T02:44:56;3.63;;;2.27;;
2476;SDS011;1249;51.270;6.756;2023-08-08T02:47:21;3.43;;;2.33;;
2476;SDS011;1249;51.270;6.756;2023-08-08T02:49:48;2.40;;;2.10;;
2476;SDS011;1249;51.270;6.756;2023-08-08T02:52:14;2.00;;;1.90;;
2476;SDS011;1249;51.270;6.756;2023-08-08T02:54:39;5.50;;;2.30;;
2476;SDS011;1249;51.270;6.756;2023-08-08T02:57:05;3.87;;;2.37;;
2476;SDS011;1249;51.270;6.756;2023-08-08T02:59:30;6.70;;;2.20;;
2476;SDS011;1249;51.270;6.756;2023-08-08T03:01:56;4.90;;;2.00;;
2476;SDS011;1249;51.270;6.756;2023-08-08T03:04:22;4.33;;;2.23;;
2476;SDS011;1249;51.270;6.756;2023-08-08T03:06:47;2.10;;;2.00;;
2476;SDS011;1249;51.270;6.756;2023-08-08T03:09:13;2.80;;;2.10;;
2476;SDS011;1249;51.270;6.756;2023-08-08T03:11:38;2.77;;;2.23;;
2476;SDS011;1249;51.270;6.756;2023-08-08T03:14:06;8.23;;;2.60;;
2476;SDS011;1249;51.270;6.756;2023-08-08T03:16:33;3.90;;;2.37;;
2476;SDS011;1249;51.270;6.756;2023-08-08T03:18:59;2.93;;;2.67;;
2476;SDS011;1249;51.270;6.756;2023-08-08T03:21:24;4.70;;;2.20;;
2476;SDS011;1249;51.270;6.756;2023-08-08T03:23:50;2.83;;;2.23;;
2476;SDS011;1249;51.270;6.756;2023-08-08T03:26:15;4.37;;;2.40;;
2476;SDS011;1249;51.270;6.756;2023-08-08T03:28:41;3.60;;;2.40;;
2476;SDS011;1249;51.270;6.756;2023-08-08T03:31:06;2.10;;;1.80;;
2476;SDS011;1249;51.270;6.756;2023-08-08T03:33:32;2.33;;;2.10;;
2476;SDS011;1249;51.270;6.756;2023-08-08T03:35:58;2.80;;;2.07;;
2476;SDS011;1249;51.270;6.756;2023-08-08T03:38:23;2.27;;;2.00;;
2476;SDS011;1249;51.270;6.756;2023-08-08T03:40:49;5.40;;;3.60;;
2476;SDS011;1249;51.270;6.756;2023-08-08T03:43:15;4.30;;;2.33;;
2476;SDS011;1249;51.270;6.756;2023-08-08T03:45:41;3.53;;;2.83;;
2476;SDS011;1249;51.270;6.756;2023-08-08T03:48:06;3.53;;;2.23;;
2476;SDS011;1249;51.270;6.756;2023-08-08T03:50:32;4.00;;;2.17;;
2476;SDS011;1249;51.270;6.756;2023-08-08T03:52:57;4.23;;;2.10;;
2476;SDS011;1249;51.270;6.756;2023-08-08T03:55:23;2.40;;;2.20;;
2476;SDS011;1249;51.270;6.756;2023-08-08T03:57:49;2.10;;;1.90;;
2476;SDS011;1249;51.270;6.756;2023-08-08T04:00:14;3.27;;;2.30;;
2476;SDS011;1249;51.270;6.756;2023-08-08T04:02:40;3.07;;;2.60;;
2476;SDS011;1249;51.270;6.756;2023-08-08T04:05:06;2.67;;;2.47;;
2476;SDS011;1249;51.270;6.756;2023-08-08T04:07:32;4.20;;;2.73;;
2476;SDS011;1249;51.270;6.756;2023-08-08T04:09:57;3.77;;;2.60;;
2476;SDS011;1249;51.270;6.756;2023-08-08T04:12:23;4.83;;;2.53;;
2476;SDS011;1249;51.270;6.756;2023-08-08T04:14:48;5.00;;;2.70;;
2476;SDS011;1249;51.270;6.756;2023-08-08T04:17:14;4.77;;;2.50;;
2476;SDS011;1249;51.270;6.756;2023-08-08T04:19:39;3.90;;;2.37;;
2476;SDS011;1249;51.270;6.756;2023-08-08T04:22:05;7.53;;;3.13;;
2476;SDS011;1249;51.270;6.756;2023-08-08T04:24:30;5.63;;;3.20;;
2476;SDS011;1249;51.270;6.756;2023-08-08T04:26:56;7.70;;;3.50;;
2476;SDS011;1249;51.270;6.756;2023-08-08T04:29:21;5.83;;;2.40;;
2476;SDS011;1249;51.270;6.756;2023-08-08T04:31:47;4.03;;;2.60;;
2476;SDS011;1249;51.270;6.756;2023-08-08T04:34:13;4.83;;;2.60;;
2476;SDS011;1249;51.270;6.756;2023-08-08T04:36:38;2.60;;;2.30;;
2476;SDS011;1249;51.270;6.756;2023-08-08T04:39:04;5.70;;;3.27;;
2476;SDS011;1249;51.270;6.756;2023-08-08T04:41:29;3.67;;;2.60;;
2476;SDS011;1249;51.270;6.756;2023-08-08T04:43:55;5.80;;;3.00;;
2476;SDS011;1249;51.270;6.756;2023-08-08T04:46:20;5.33;;;3.10;;
2476;SDS011;1249;51.270;6.756;2023-08-08T04:48:46;8.97;;;5.90;;
2476;SDS011;1249;51.270;6.756;2023-08-08T04:51:11;5.87;;;3.17;;
2476;SDS011;1249;51.270;6.756;2023-08-08T04:53:37;6.13;;;2.80;;
2476;SDS011;1249;51.270;6.756;2023-08-08T04:56:03;8.77;;;2.87;;
2476;SDS011;1249;51.270;6.756;2023-08-08T04:58:28;5.10;;;2.93;;
2476;SDS011;1249;51.270;6.756;2023-08-08T05:00:54;5.97;;;3.13;;
2476;SDS011;1249;51.270;6.756;2023-08-08T05:03:20;5.80;;;3.67;;
2476;SDS011;1249;51.270;6.756;2023-08-08T05:05:45;3.00;;;2.67;;
2476;SDS011;1249;51.270;6.756;2023-08-08T05:08:11;3.10;;;2.20;;
2476;SDS011;1249;51.270;6.756;2023-08-08T05:10:39;5.20;;;3.53;;
2476;SDS011;1249;51.270;6.756;2023-08-08T05:13:05;9.60;;;4.07;;
2476;SDS011;1249;51.270;6.756;2023-08-08T05:15:31;5.10;;;3.00;;
2476;SDS011;1249;51.270;6.756;2023-08-08T05:17:57;2.73;;;2.53;;
2476;SDS011;1249;51.270;6.756;2023-08-08T05:20:24;4.40;;;3.23;;
2476;SDS011;1249;51.270;6.756;2023-08-08T05:22:50;4.60;;;3.03;;
2476;SDS011;1249;51.270;6.756;2023-08-08T05:25:16;3.43;;;2.90;;
2476;SDS011;1249;51.270;6.756;2023-08-08T05:27:41;4.20;;;2.97;;
2476;SDS011;1249;51.270;6.756;2023-08-08T05:30:07;6.70;;;3.10;;
2476;SDS011;1249;51.270;6.756;2023-08-08T05:32:32;12.63;;;3.40;;
2476;SDS011;1249;51.270;6.756;2023-08-08T05:34:58;7.30;;;3.43;;
2476;SDS011;1249;51.270;6.756;2023-08-08T05:37:25;6.77;;;3.70;;
2476;SDS011;1249;51.270;6.756;2023-08-08T05:39:51;8.63;;;4.07;;
2476;SDS011;1249;51.270;6.756;2023-08-08T05:42:18;14.33;;;4.03;;
2476;SDS011;1249;51.270;6.756;2023-08-08T05:44:44;10.83;;;3.77;;
2476;SDS011;1249;51.270;6.756;2023-08-08T05:47:10;12.33;;;4.33;;
2476;SDS011;1249;51.270;6.756;2023-08-08T05:49:36;11.40;;;7.17;;
2476;SDS011;1249;51.270;6.756;2023-08-08T05:52:03;9.10;;;4.23;;
2476;SDS011;1249;51.270;6.756;2023-08-08T05:54:28;5.63;;;4.47;;
2476;SDS011;1249;51.270;6.756;2023-08-08T05:56:54;5.53;;;4.50;;
2476;SDS011;1249;51.270;6.756;2023-08-08T05:59:19;10.13;;;4.77;;
2476;SDS011;1249;51.270;6.756;2023-08-08T06:01:45;6.03;;;4.13;;
2476;SDS011;1249;51.270;6.756;2023-08-08T06:04:11;7.40;;;4.70;;
2476;SDS011;1249;51.270;6.756;2023-08-08T06:06:37;6.07;;;4.67;;
2476;SDS011;1249;51.270;6.756;2023-08-08T06:09:03;6.50;;;4.10;;
2476;SDS011;1249;51.270;6.756;2023-08-08T06:11:29;12.23;;;5.37;;
2476;SDS011;1249;51.270;6.756;2023-08-08T06:13:55;4.93;;;4.10;;
2476;SDS011;1249;51.270;6.756;2023-08-08T06:16:21;7.13;;;4.20;;
2476;SDS011;1249;51.270;6.756;2023-08-08T06:18:47;7.30;;;4.50;;
2476;SDS011;1249;51.270;6.756;2023-08-08T06:21:13;6.47;;;4.73;;
2476;SDS011;1249;51.270;6.756;2023-08-08T06:23:38;5.30;;;4.07;;
2476;SDS011;1249;51.270;6.756;2023-08-08T06:26:04;4.60;;;4.20;;
2476;SDS011;1249;51.270;6.756;2023-08-08T06:28:30;6.87;;;4.50;;
2476;SDS011;1249;51.270;6.756;2023-08-08T06:30:57;4.73;;;3.70;;
2476;SDS011;1249;51.270;6.756;2023-08-08T06:33:23;7.43;;;3.77;;
2476;SDS011;1249;51.270;6.756;2023-08-08T06:35:48;5.40;;;4.20;;
2476;SDS011;1249;51.270;6.756;2023-08-08T06:38:14;4.63;;;4.13;;
2476;SDS011;1249;51.270;6.756;2023-08-08T06:40:40;10.33;;;4.03;;
2476;SDS011;1249;51.270;6.756;2023-08-08T06:43:05;9.00;;;3.80;;
2476;SDS011;1249;51.270;6.756;2023-08-08T06:45:31;7.57;;;4.23;;
2476;SDS011;1249;51.270;6.756;2023-08-08T06:47:56;9.03;;;4.23;;
2476;SDS011;1249;51.270;6.756;2023-08-08T06:50:22;7.13;;;4.20;;
2476;SDS011;1249;51.270;6.756;2023-08-08T06:52:49;8.73;;;4.30;;
2476;SDS011;1249;51.270;6.756;2023-08-08T06:55:15;10.20;;;4.07;;
2476;SDS011;1249;51.270;6.756;2023-08-08T06:57:41;9.00;;;4.70;;
2476;SDS011;1249;51.270;6.756;2023-08-08T07:00:06;6.30;;;3.70;;
2476;SDS011;1249;51.270;6.756;2023-08-08T07:02:33;7.23;;;5.30;;
2476;SDS011;1249;51.270;6.756;2023-08-08T07:04:59;10.20;;;6.10;;
2476;SDS011;1249;51.270;6.756;2023-08-08T07:07:24;7.10;;;3.80;;
2476;SDS011;1249;51.270;6.756;2023-08-08T07:09:50;8.10;;;4.27;;
2476;SDS011;1249;51.270;6.756;2023-08-08T07:12:16;11.10;;;4.83;;
2476;SDS011;1249;51.270;6.756;2023-08-08T07:14:41;5.63;;;3.60;;
2476;SDS011;1249;51.270;6.756;2023-08-08T07:17:07;11.40;;;4.20;;
2476;SDS011;1249;51.270;6.756;2023-08-08T07:19:32;3.73;;;3.40;;
2476;SDS011;1249;51.270;6.756;2023-08-08T07:21:58;5.10;;;4.00;;
2476;SDS011;1249;51.270;6.756;2023-08-08T07:24:23;4.10;;;3.63;;
2476;SDS011;1249;51.270;6.756;2023-08-08T07:26:53;5.10;;;4.20;;
2476;SDS011;1249;51.270;6.756;2023-08-08T07:29:23;5.00;;;4.30;;
2476;SDS011;1249;51.270;6.756;2023-08-08T07:31:48;3.53;;;2.93;;
2476;SDS011;1249;51.270;6.756;2023-08-08T07:34:14;7.80;;;4.07;;
2476;SDS011;1249;51.270;6.756;2023-08-08T07:36:39;8.67;;;3.60;;
2476;SDS011;1249;51.270;6.756;2023-08-08T07:39:05;10.70;;;3.93;;
2476;SDS011;1249;51.270;6.756;2023-08-08T07:41:31;5.43;;;3.23;;
2476;SDS011;1249;51.270;6.756;2023-08-08T07:43:56;5.57;;;3.90;;
2476;SDS011;1249;51.270;6.756;2023-08-08T07:46:22;7.93;;;3.67;;
2476;SDS011;1249;51.270;6.756;2023-08-08T07:48:48;9.07;;;3.80;;
2476;SDS011;1249;51.270;6.756;2023-08-08T07:51:13;11.17;;;3.77;;
2476;SDS011;1249;51.270;6.756;2023-08-08T07:53:39;6.00;;;3.60;;
2476;SDS011;1249;51.270;6.756;2023-08-08T07:56:04;3.93;;;3.50;;
2476;SDS011;1249;51.270;6.756;2023-08-08T07:58:31;4.47;;;3.47;;
2476;SDS011;1249;51.270;6.756;2023-08-08T08:00:57;4.03;;;3.43;;
2476;SDS011;1249;51.270;6.756;2023-08-08T08:03:24;3.33;;;3.00;;
2476;SDS011;1249;51.270;6.756;2023-08-08T08:05:51;5.43;;;3.17;;
2476;SDS011;1249;51.270;6.756;2023-08-08T08:08:16;4.30;;;3.40;;
2476;SDS011;1249;51.270;6.756;2023-08-08T08:10:42;4.03;;;3.50;;
2476;SDS011;1249;51.270;6.756;2023-08-08T08:13:08;7.40;;;3.33;;
2476;SDS011;1249;51.270;6.756;2023-08-08T08:15:35;6.83;;;3.40;;
2476;SDS011;1249;51.270;6.756;2023-08-08T08:18:01;4.87;;;3.17;;
2476;SDS011;1249;51.270;6.756;2023-08-08T08:20:26;7.30;;;3.90;;
2476;SDS011;1249;51.270;6.756;2023-08-08T08:22:52;5.80;;;3.37;;
2476;SDS011;1249;51.270;6.756;2023-08-08T08:25:17;6.03;;;3.23;;
2476;SDS011;1249;51.270;6.756;2023-08-08T08:27:43;7.20;;;3.10;;
2476;SDS011;1249;51.270;6.756;2023-08-08T08:30:09;4.53;;;3.40;;
2476;SDS011;1249;51.270;6.756;2023-08-08T08:32:35;6.20;;;3.50;;
2476;SDS011;1249;51.270;6.756;2023-08-08T08:35:02;5.33;;;4.47;;
2476;SDS011;1249;51.270;6.756;2023-08-08T08:37:32;5.93;;;2.87;;
2476;SDS011;1249;51.270;6.756;2023-08-08T08:39:58;7.63;;;3.20;;
2476;SDS011;1249;51.270;6.756;2023-08-08T08:42:24;6.30;;;3.37;;
2476;SDS011;1249;51.270;6.756;2023-08-08T08:44:52;9.40;;;3.57;;
2476;SDS011;1249;51.270;6.756;2023-08-08T08:47:22;6.43;;;2.67;;
2476;SDS011;1249;51.270;6.756;2023-08-08T08:49:49;6.80;;;3.00;;
2476;SDS011;1249;51.270;6.756;2023-08-08T08:52:17;7.43;;;3.70;;
2476;SDS011;1249;51.270;6.756;2023-08-08T08:54:43;6.00;;;3.40;;
2476;SDS011;1249;51.270;6.756;2023-08-08T08:57:09;5.30;;;3.60;;
2476;SDS011;1249;51.270;6.756;2023-08-08T08:59:35;7.23;;;3.40;;
2476;SDS011;1249;51.270;6.756;2023-08-08T09:02:01;6.20;;;3.40;;
2476;SDS011;1249;51.270;6.756;2023-08-08T09:04:27;6.60;;;3.07;;
2476;SDS011;1249;51.270;6.756;2023-08-08T09:06:54;9.23;;;4.20;;
2476;SDS011;1249;51.270;6.756;2023-08-08T09:09:19;5.43;;;3.27;;
2476;SDS011;1249;51.270;6.756;2023-08-08T09:11:50;2.83;;;2.50;;
2476;SDS011;1249;51.270;6.756;2023-08-08T09:14:23;7.10;;;3.20;;
2476;SDS011;1249;51.270;6.756;2023-08-08T09:16:49;5.47;;;3.23;;
2476;SDS011;1249;51.270;6.756;2023-08-08T09:19:19;6.77;;;3.47;;
2476;SDS011;1249;51.270;6.756;2023-08-08T09:21:46;5.50;;;3.30;;
2476;SDS011;1249;51.270;6.756;2023-08-08T09:24:12;6.80;;;3.43;;
2476;SDS011;1249;51.270;6.756;2023-08-08T09:26:41;4.83;;;2.50;;
2476;SDS011;1249;51.270;6.756;2023-08-08T09:29:07;3.60;;;3.30;;
2476;SDS011;1249;51.270;6.756;2023-08-08T09:31:36;6.50;;;3.33;;
2476;SDS011;1249;51.270;6.756;2023-08-08T09:34:02;6.60;;;3.60;;
2476;SDS011;1249;51.270;6.756;2023-08-08T09:36:29;9.60;;;6.50;;
2476;SDS011;1249;51.270;6.756;2023-08-08T09:38:55;6.60;;;3.57;;
2476;SDS011;1249;51.270;6.756;2023-08-08T09:41:22;4.70;;;2.70;;
2476;SDS011;1249;51.270;6.756;2023-08-08T09:43:48;5.50;;;3.20;;
2476;SDS011;1249;51.270;6.756;2023-08-08T09:46:15;6.20;;;2.63;;
2476;SDS011;1249;51.270;6.756;2023-08-08T09:48:41;4.23;;;2.90;;
2476;SDS011;1249;51.270;6.756;2023-08-08T09:51:07;4.40;;;3.07;;
2476;SDS011;1249;51.270;6.756;2023-08-08T09:53:33;4.80;;;2.83;;
2476;SDS011;1249;51.270;6.756;2023-08-08T09:56:00;6.00;;;2.90;;
2476;SDS011;1249;51.270;6.756;2023-08-08T09:58:29;4.33;;;2.03;;
2476;SDS011;1249;51.270;6.756;2023-08-08T10:00:55;2.93;;;2.63;;
2476;SDS011;1249;51.270;6.756;2023-08-08T10:03:21;6.00;;;2.40;;
2476;SDS011;1249;51.270;6.756;2023-08-08T10:05:47;5.50;;;2.50;;
2476;SDS011;1249;51.270;6.756;2023-08-08T10:08:17;3.83;;;2.83;;
2476;SDS011;1249;51.270;6.756;2023-08-08T10:10:44;2.67;;;2.43;;
2476;SDS011;1249;51.270;6.756;2023-08-08T10:13:24;3.40;;;3.00;;
2476;SDS011;1249;51.270;6.756;2023-08-08T10:15:52;4.63;;;2.73;;
2476;SDS011;1249;51.270;6.756;2023-08-08T10:18:20;3.80;;;3.30;;
2476;SDS011;1249;51.270;6.756;2023-08-08T10:20:47;2.90;;;2.60;;
2476;SDS011;1249;51.270;6.756;2023-08-08T10:23:14;5.53;;;3.03;;
2476;SDS011;1249;51.270;6.756;2023-08-08T10:25:44;4.53;;;2.63;;
2476;SDS011;1249;51.270;6.756;2023-08-08T10:28:12;7.70;;;2.60;;
2476;SDS011;1249;51.270;6.756;2023-08-08T10:33:25;9.70;;;2.50;;
2476;SDS011;1249;51.270;6.756;2023-08-08T10:35:59;5.20;;;3.10;;
2476;SDS011;1249;51.270;6.756;2023-08-08T10:38:45;2.60;;;2.23;;
2476;SDS011;1249;51.270;6.756;2023-08-08T10:41:17;3.53;;;2.33;;
2476;SDS011;1249;51.270;6.756;2023-08-08T10:43:51;5.83;;;2.57;;
2476;SDS011;1249;51.270;6.756;2023-08-08T10:48:53;4.97;;;2.70;;
2476;SDS011;1249;51.270;6.756;2023-08-08T10:51:21;10.60;;;3.13;;
2476;SDS011;1249;51.270;6.756;2023-08-08T10:53:50;6.17;;;3.60;;
2476;SDS011;1249;51.270;6.756;2023-08-08T10:56:17;5.30;;;2.70;;
2476;SDS011;1249;51.270;6.756;2023-08-08T10:58:47;6.10;;;3.10;;
2476;SDS011;1249;51.270;6.756;2023-08-08T11:01:13;7.83;;;2.63;;
2476;SDS011;1249;51.270;6.756;2023-08-08T11:03:41;4.77;;;2.83;;
2476;SDS011;1249;51.270;6.756;2023-08-08T11:06:08;4.60;;;2.73;;
2476;SDS011;1249;51.270;6.756;2023-08-08T11:08:34;7.20;;;3.90;;
2476;SDS011;1249;51.270;6.756;2023-08-08T11:11:03;10.67;;;3.80;;
2476;SDS011;1249;51.270;6.756;2023-08-08T11:13:29;3.20;;;2.70;;
2476;SDS011;1249;51.270;6.756;2023-08-08T11:15:55;4.33;;;2.70;;
2476;SDS011;1249;51.270;6.756;2023-08-08T11:18:21;8.77;;;3.10;;
2476;SDS011;1249;51.270;6.756;2023-08-08T11:20:47;3.77;;;2.43;;
2476;SDS011;1249;51.270;6.756;2023-08-08T11:23:14;3.00;;;2.70;;
2476;SDS011;1249;51.270;6.756;2023-08-08T11:25:40;4.83;;;3.63;;
2476;SDS011;1249;51.270;6.756;2023-08-08T11:28:07;6.90;;;2.70;;
2476;SDS011;1249;51.270;6.756;2023-08-08T11:30:34;7.63;;;3.03;;
2476;SDS011;1249;51.270;6.756;2023-08-08T11:33:02;6.70;;;3.50;;
2476;SDS011;1249;51.270;6.756;2023-08-08T11:35:28;3.97;;;2.63;;
2476;SDS011;1249;51.270;6.756;2023-08-08T11:37:55;5.57;;;3.50;;
2476;SDS011;1249;51.270;6.756;2023-08-08T11:40:22;4.67;;;2.50;;
2476;SDS011;1249;51.270;6.756;2023-08-08T11:42:50;3.50;;;2.43;;
2476;SDS011;1249;51.270;6.756;2023-08-08T11:45:16;5.97;;;3.63;;
2476;SDS011;1249;51.270;6.756;2023-08-08T11:47:42;8.60;;;2.70;;
2476;SDS011;1249;51.270;6.756;2023-08-08T11:50:09;7.83;;;2.80;;
2476;SDS011;1249;51.270;6.756;2023-08-08T11:52:42;5.10;;;3.57;;
2476;SDS011;1249;51.270;6.756;2023-08-08T11:55:10;10.03;;;4.00;;
2476;SDS011;1249;51.270;6.756;2023-08-08T11:57:37;3.63;;;2.40;;
2476;SDS011;1249;51.270;6.756;2023-08-08T12:00:09;5.03;;;3.53;;
2476;SDS011;1249;51.270;6.756;2023-08-08T12:02:42;5.50;;;2.77;;
2476;SDS011;1249;51.270;6.756;2023-08-08T12:05:08;3.43;;;3.13;;
2476;SDS011;1249;51.270;6.756;2023-08-08T12:07:41;3.33;;;2.80;;
2476;SDS011;1249;51.270;6.756;2023-08-08T12:10:14;3.70;;;2.80;;
2476;SDS011;1249;51.270;6.756;2023-08-08T12:12:44;4.63;;;3.20;;
2476;SDS011;1249;51.270;6.756;2023-08-08T12:15:10;4.13;;;2.40;;
2476;SDS011;1249;51.270;6.756;2023-08-08T12:17:36;3.63;;;2.90;;
2476;SDS011;1249;51.270;6.756;2023-08-08T12:20:06;6.13;;;2.77;;
2476;SDS011;1249;51.270;6.756;2023-08-08T12:22:32;4.23;;;2.70;;
2476;SDS011;1249;51.270;6.756;2023-08-08T12:24:58;4.43;;;2.60;;
2476;SDS011;1249;51.270;6.756;2023-08-08T12:27:25;2.90;;;2.17;;
2476;SDS011;1249;51.270;6.756;2023-08-08T12:29:50;4.33;;;3.00;;
2476;SDS011;1249;51.270;6.756;2023-08-08T12:32:18;3.07;;;2.87;;
2476;SDS011;1249;51.270;6.756;2023-08-08T12:34:44;3.87;;;2.87;;
2476;SDS011;1249;51.270;6.756;2023-08-08T12:37:10;4.07;;;2.37;;
2476;SDS011;1249;51.270;6.756;2023-08-08T12:39:36;4.47;;;2.50;;
2476;SDS011;1249;51.270;6.756;2023-08-08T12:42:01;2.93;;;2.40;;
2476;SDS011;1249;51.270;6.756;2023-08-08T12:44:27;4.40;;;2.40;;
2476;SDS011;1249;51.270;6.756;2023-08-08T12:46:52;6.07;;;2.60;;
2476;SDS011;1249;51.270;6.756;2023-08-08T12:49:18;4.67;;;2.90;;
2476;SDS011;1249;51.270;6.756;2023-08-08T12:51:43;3.40;;;2.60;;
2476;SDS011;1249;51.270;6.756;2023-08-08T12:54:09;4.27;;;3.83;;
2476;SDS011;1249;51.270;6.756;2023-08-08T12:56:34;5.30;;;2.70;;
2476;SDS011;1249;51.270;6.756;2023-08-08T12:59:01;5.20;;;3.60;;
2476;SDS011;1249;51.270;6.756;2023-08-08T13:01:27;3.33;;;3.03;;
2476;SDS011;1249;51.270;6.756;2023-08-08T13:03:53;3.37;;;2.87;;
2476;SDS011;1249;51.270;6.756;2023-08-08T13:06:19;5.13;;;3.10;;
2476;SDS011;1249;51.270;6.756;2023-08-08T13:08:44;5.33;;;2.53;;
2476;SDS011;1249;51.270;6.756;2023-08-08T13:11:10;2.50;;;2.30;;
2476;SDS011;1249;51.270;6.756;2023-08-08T13:13:35;4.30;;;2.73;;
2476;SDS011;1249;51.270;6.756;2023-08-08T13:16:01;4.03;;;3.33;;
2476;SDS011;1249;51.270;6.756;2023-08-08T13:18:27;11.40;;;3.00;;
2476;SDS011;1249;51.270;6.756;2023-08-08T13:20:53;3.23;;;2.77;;
2476;SDS011;1249;51.270;6.756;2023-08-08T13:23:18;5.07;;;2.73;;
2476;SDS011;1249;51.270;6.756;2023-08-08T13:25:44;2.63;;;2.43;;
2476;SDS011;1249;51.270;6.756;2023-08-08T13:28:09;5.07;;;3.03;;
2476;SDS011;1249;51.270;6.756;2023-08-08T13:30:35;3.77;;;3.13;;
2476;SDS011;1249;51.270;6.756;2023-08-08T13:33:01;4.73;;;2.87;;
2476;SDS011;1249;51.270;6.756;2023-08-08T13:35:26;6.50;;;3.07;;
2476;SDS011;1249;51.270;6.756;2023-08-08T13:37:52;4.17;;;3.23;;
2476;SDS011;1249;51.270;6.756;2023-08-08T13:40:19;4.30;;;3.30;;
2476;SDS011;1249;51.270;6.756;2023-08-08T13:42:45;5.23;;;3.00;;
2476;SDS011;1249;51.270;6.756;2023-08-08T13:45:13;7.93;;;3.37;;
2476;SDS011;1249;51.270;6.756;2023-08-08T13:47:39;4.20;;;3.03;;
2476;SDS011;1249;51.270;6.756;2023-08-08T13:50:05;6.47;;;2.73;;
2476;SDS011;1249;51.270;6.756;2023-08-08T13:52:32;2.80;;;2.60;;
2476;SDS011;1249;51.270;6.756;2023-08-08T13:54:58;4.17;;;3.67;;
2476;SDS011;1249;51.270;6.756;2023-08-08T13:57:24;5.87;;;3.03;;
2476;SDS011;1249;51.270;6.756;2023-08-08T13:59:49;3.63;;;2.87;;
2476;SDS011;1249;51.270;6.756;2023-08-08T14:02:15;3.87;;;2.90;;
2476;SDS011;1249;51.270;6.756;2023-08-08T14:04:43;7.20;;;3.30;;
2476;SDS011;1249;51.270;6.756;2023-08-08T14:07:11;5.73;;;2.80;;
2476;SDS011;1249;51.270;6.756;2023-08-08T14:09:37;3.83;;;3.00;;
2476;SDS011;1249;51.270;6.756;2023-08-08T14:12:03;3.30;;;3.00;;
2476;SDS011;1249;51.270;6.756;2023-08-08T14:14:28;5.23;;;2.53;;
2476;SDS011;1249;51.270;6.756;2023-08-08T14:16:54;3.30;;;2.70;;
2476;SDS011;1249;51.270;6.756;2023-08-08T14:19:19;2.83;;;2.63;;
2476;SDS011;1249;51.270;6.756;2023-08-08T14:21:45;3.60;;;2.90;;
2476;SDS011;1249;51.270;6.756;2023-08-08T14:24:11;5.07;;;2.63;;
2476;SDS011;1249;51.270;6.756;2023-08-08T14:26:36;4.77;;;2.80;;
2476;SDS011;1249;51.270;6.756;2023-08-08T14:29:02;7.70;;;3.23;;
2476;SDS011;1249;51.270;6.756;2023-08-08T14:31:28;5.40;;;2.83;;
2476;SDS011;1249;51.270;6.756;2023-08-08T14:33:53;3.23;;;2.53;;
2476;SDS011;1249;51.270;6.756;2023-08-08T14:36:19;4.50;;;2.67;;
2476;SDS011;1249;51.270;6.756;2023-08-08T14:38:44;3.47;;;2.73;;
2476;SDS011;1249;51.270;6.756;2023-08-08T14:41:10;4.30;;;3.23;;
2476;SDS011;1249;51.270;6.756;2023-08-08T14:43:36;2.63;;;2.40;;
2476;SDS011;1249;51.270;6.756;2023-08-08T14:46:01;2.83;;;2.50;;
2476;SDS011;1249;51.270;6.756;2023-08-08T14:48:27;3.53;;;2.30;;
2476;SDS011;1249;51.270;6.756;2023-08-08T14:50:52;2.93;;;1.90;;
2476;SDS011;1249;51.270;6.756;2023-08-08T14:53:18;3.67;;;2.53;;
2476;SDS011;1249;51.270;6.756;2023-08-08T14:55:43;2.27;;;2.07;;
2476;SDS011;1249;51.270;6.756;2023-08-08T14:58:09;3.93;;;2.40;;
2476;SDS011;1249;51.270;6.756;2023-08-08T15:00:35;2.80;;;2.00;;
2476;SDS011;1249;51.270;6.756;2023-08-08T15:03:00;2.20;;;2.00;;
2476;SDS011;1249;51.270;6.756;2023-08-08T15:05:26;4.50;;;1.90;;
2476;SDS011;1249;51.270;6.756;2023-08-08T15:07:51;3.43;;;1.93;;
2476;SDS011;1249;51.270;6.756;2023-08-08T15:10:17;2.00;;;1.80;;
2476;SDS011;1249;51.270;6.756;2023-08-08T15:12:42;3.80;;;2.30;;
2476;SDS011;1249;51.270;6.756;2023-08-08T15:15:08;2.23;;;1.83;;
2476;SDS011;1249;51.270;6.756;2023-08-08T15:17:34;3.03;;;1.83;;